Gennaro Ievoli — 9HA3007 — position and weather

sailwx.info

Track history (hours):
 
Tides and Currents Weather Stations Pressure Air Temp Water Temp Dewpoint Dewpoint Depression Visibility Wind Speed Wind Dir Waves Ship Positions

Gennaro Ievoli

Last reported at 2016-May-17 14:12 UTC. Time now 2016-May-29 15:26 UTC.
Position N 01°16' E 104°09'.
Warning: this ship's position is 12 days out of date.

Length 171 m; draft 7.8 m.

Type: Tanker. MMSI: 229031000.

Date/timePositionNaut miles runAvg speedWind from/ knotsBaromVisibWave heightAir tempDewpointWater temp
2016-May-17 14:12N 01°16' E 104°09'710.6
2016-May-17 13:33N 01°21' E 104°04'11 9.1
2016-May-17 12:20N 01°26' E 103°54'4 0.2
2016-May-16 17:30N 01°24' E 103°58'9 9.4
2016-May-16 16:33N 01°20' E 104°06'4 2.0
2016-May-16 14:21N 01°16' E 104°08'1012.3
2016-May-16 13:33N 01°14' E 103°59'1111.0
2016-May-16 12:33N 01°10' E 103°49'1211.8
2016-May-16 11:32N 01°03' E 103°39'9 8.5
2016-May-16 10:32N 01°10' E 103°35'5 5.2
2016-May-16 09:28N 01°14' E 103°39'0 0.0
2016-May-16 08:25N 01°14' E 103°39'0 0.0
2016-May-16 07:28N 01°14' E 103°39'0 0.0
2016-May-16 06:33N 01°14' E 103°39'0 0.0
2016-May-16 04:32N 01°14' E 103°39'0 0.1
2016-May-16 03:29N 01°14' E 103°39'0 0.0
2016-May-16 02:07N 01°14' E 103°39'0 0.0
2016-May-16 01:22N 01°14' E 103°39'0 0.1
2016-May-16 00:28N 01°14' E 103°39'0 0.0
2016-May-15 23:22N 01°14' E 103°39'1 1.1
2016-May-15 22:33N 01°13' E 103°39'7 7.2
2016-May-15 21:33N 01°10' E 103°32'5312.9
2016-May-15 17:26N 01°38' E 102°47'1212.9
2016-May-15 16:29N 01°43' E 102°36'1213.0
2016-May-15 15:32N 01°48' E 102°25'24 0.5
2016-May-13 12:27N 02°04' E 102°07'1413.9
2016-May-13 11:26N 01°56' E 102°18'1314.4
2016-May-13 10:33N 01°51' E 102°30'1514.4
2016-May-13 09:33N 01°44' E 102°43'5513.9
2016-May-13 05:33N 01°13' E 103°29'9 0.5
2016-May-12 10:27N 01°04' E 103°31'0 0.0
2016-May-12 09:33N 01°04' E 103°31'5 4.5
2016-May-12 08:25N 01°09' E 103°33'8 9.2
2016-May-12 07:32N 01°10' E 103°41'1010.2
2016-May-12 06:33N 01°12' E 103°51'1110.7
2016-May-12 05:33N 01°16' E 104°01'  
Track history (hours):
 
Tides and Currents Weather Stations Pressure Air Temp Water Temp Dewpoint Dewpoint Depression Visibility Wind Speed Wind Dir Waves Ship Positions

Gennaro Ievoli

Last reported at 2016-May-17 14:12 UTC. Time now 2016-May-29 15:26 UTC.
Position N 01°16' E 104°09'.
Warning: this ship's position is 12 days out of date.

Length 171 m; draft 7.8 m.

Type: Tanker. MMSI: 229031000.

Date/timePositionNaut miles runAvg speedWind from/ knotsBaromVisibWave heightAir tempDewpointWater temp
2016-May-17 14:12N 01°16' E 104°09'710.6
2016-May-17 13:33N 01°21' E 104°04'11 9.1
2016-May-17 12:20N 01°26' E 103°54'4 0.2
2016-May-16 17:30N 01°24' E 103°58'9 9.4
2016-May-16 16:33N 01°20' E 104°06'4 2.0
2016-May-16 14:21N 01°16' E 104°08'1012.3
2016-May-16 13:33N 01°14' E 103°59'1111.0
2016-May-16 12:33N 01°10' E 103°49'1211.8
2016-May-16 11:32N 01°03' E 103°39'9 8.5
2016-May-16 10:32N 01°10' E 103°35'5 5.2
2016-May-16 09:28N 01°14' E 103°39'0 0.0
2016-May-16 08:25N 01°14' E 103°39'0 0.0
2016-May-16 07:28N 01°14' E 103°39'0 0.0
2016-May-16 06:33N 01°14' E 103°39'0 0.0
2016-May-16 04:32N 01°14' E 103°39'0 0.1
2016-May-16 03:29N 01°14' E 103°39'0 0.0
2016-May-16 02:07N 01°14' E 103°39'0 0.0
2016-May-16 01:22N 01°14' E 103°39'0 0.1
2016-May-16 00:28N 01°14' E 103°39'0 0.0
2016-May-15 23:22N 01°14' E 103°39'1 1.1
2016-May-15 22:33N 01°13' E 103°39'7 7.2
2016-May-15 21:33N 01°10' E 103°32'5312.9
2016-May-15 17:26N 01°38' E 102°47'1212.9
2016-May-15 16:29N 01°43' E 102°36'1213.0
2016-May-15 15:32N 01°48' E 102°25'24 0.5
2016-May-13 12:27N 02°04' E 102°07'1413.9
2016-May-13 11:26N 01°56' E 102°18'1314.4
2016-May-13 10:33N 01°51' E 102°30'1514.4
2016-May-13 09:33N 01°44' E 102°43'5513.9
2016-May-13 05:33N 01°13' E 103°29'9 0.5
2016-May-12 10:27N 01°04' E 103°31'0 0.0
2016-May-12 09:33N 01°04' E 103°31'5 4.5
2016-May-12 08:25N 01°09' E 103°33'8 9.2
2016-May-12 07:32N 01°10' E 103°41'1010.2
2016-May-12 06:33N 01°12' E 103°51'1110.7
2016-May-12 05:33N 01°16' E 104°01'  

Dump ship's entire track history